sensor_id;sensor_type;location;lat;lon;timestamp;temperature;humidity
3954;DHT22;1991;48.682;9.030;2023-02-08T00:01:51;-3.60;99.90
3954;DHT22;1991;48.682;9.030;2023-02-08T00:04:17;-3.50;99.90
3954;DHT22;1991;48.682;9.030;2023-02-08T00:06:43;-3.60;99.90
3954;DHT22;1991;48.682;9.030;2023-02-08T00:09:08;-3.60;99.90
3954;DHT22;1991;48.682;9.030;2023-02-08T00:11:34;-3.60;99.90
3954;DHT22;1991;48.682;9.030;2023-02-08T00:14:00;-3.70;99.90
3954;DHT22;1991;48.682;9.030;2023-02-08T00:16:25;-3.70;99.90
3954;DHT22;1991;48.682;9.030;2023-02-08T00:18:51;-3.80;99.90
3954;DHT22;1991;48.682;9.030;2023-02-08T00:21:18;-3.80;99.90
3954;DHT22;1991;48.682;9.030;2023-02-08T00:23:44;-3.90;99.90
3954;DHT22;1991;48.682;9.030;2023-02-08T00:26:10;-3.90;99.90
3954;DHT22;1991;48.682;9.030;2023-02-08T00:28:36;-4.00;99.90
3954;DHT22;1991;48.682;9.030;2023-02-08T00:31:02;-3.90;99.90
3954;DHT22;1991;48.682;9.030;2023-02-08T00:33:27;-4.00;99.90
3954;DHT22;1991;48.682;9.030;2023-02-08T00:36:00;-4.00;99.90
3954;DHT22;1991;48.682;9.030;2023-02-08T00:38:27;-4.00;99.90
3954;DHT22;1991;48.682;9.030;2023-02-08T00:40:53;-4.00;99.90
3954;DHT22;1991;48.682;9.030;2023-02-08T00:43:19;-4.00;99.90
3954;DHT22;1991;48.682;9.030;2023-02-08T00:45:45;-4.10;99.90
3954;DHT22;1991;48.682;9.030;2023-02-08T00:48:10;-4.10;99.90
3954;DHT22;1991;48.682;9.030;2023-02-08T00:50:36;-4.10;99.90
3954;DHT22;1991;48.682;9.030;2023-02-08T00:53:01;-4.10;99.90
3954;DHT22;1991;48.682;9.030;2023-02-08T00:55:27;-4.20;99.90
3954;DHT22;1991;48.682;9.030;2023-02-08T00:57:52;-4.30;99.90
3954;DHT22;1991;48.682;9.030;2023-02-08T01:00:18;-4.30;99.90
3954;DHT22;1991;48.682;9.030;2023-02-08T01:02:44;-4.30;99.90
3954;DHT22;1991;48.682;9.030;2023-02-08T01:05:09;-4.30;99.90
3954;DHT22;1991;48.682;9.030;2023-02-08T01:07:36;-4.40;99.90
3954;DHT22;1991;48.682;9.030;2023-02-08T01:10:03;-4.40;99.90
3954;DHT22;1991;48.682;9.030;2023-02-08T01:12:29;-4.50;99.90
3954;DHT22;1991;48.682;9.030;2023-02-08T01:14:55;-4.50;99.90
3954;DHT22;1991;48.682;9.030;2023-02-08T01:17:20;-4.50;99.90
3954;DHT22;1991;48.682;9.030;2023-02-08T01:19:46;-4.50;99.90
3954;DHT22;1991;48.682;9.030;2023-02-08T01:22:12;-4.60;99.90
3954;DHT22;1991;48.682;9.030;2023-02-08T01:24:37;-4.60;99.90
3954;DHT22;1991;48.682;9.030;2023-02-08T01:27:03;-4.60;99.90
3954;DHT22;1991;48.682;9.030;2023-02-08T01:29:28;-4.70;99.90
3954;DHT22;1991;48.682;9.030;2023-02-08T01:31:54;-4.70;99.90
3954;DHT22;1991;48.682;9.030;2023-02-08T01:34:20;-4.70;99.90
3954;DHT22;1991;48.682;9.030;2023-02-08T01:36:45;-4.70;99.90
3954;DHT22;1991;48.682;9.030;2023-02-08T01:39:11;-4.80;99.90
3954;DHT22;1991;48.682;9.030;2023-02-08T01:41:39;-4.80;99.90
3954;DHT22;1991;48.682;9.030;2023-02-08T01:47:11;-4.90;99.90
3954;DHT22;1991;48.682;9.030;2023-02-08T01:49:37;-4.90;99.90
3954;DHT22;1991;48.682;9.030;2023-02-08T01:52:13;-5.00;99.90
3954;DHT22;1991;48.682;9.030;2023-02-08T01:54:47;-5.00;99.90
3954;DHT22;1991;48.682;9.030;2023-02-08T01:57:14;-5.00;99.90
3954;DHT22;1991;48.682;9.030;2023-02-08T01:59:42;-5.00;99.90
3954;DHT22;1991;48.682;9.030;2023-02-08T02:02:11;-5.10;99.90
3954;DHT22;1991;48.682;9.030;2023-02-08T02:04:38;-5.10;99.90
3954;DHT22;1991;48.682;9.030;2023-02-08T02:07:04;-5.10;99.90
3954;DHT22;1991;48.682;9.030;2023-02-08T02:09:41;-5.10;99.90
3954;DHT22;1991;48.682;9.030;2023-02-08T02:12:08;-5.20;99.90
3954;DHT22;1991;48.682;9.030;2023-02-08T02:14:37;-5.20;99.90
3954;DHT22;1991;48.682;9.030;2023-02-08T02:17:03;-5.20;99.90
3954;DHT22;1991;48.682;9.030;2023-02-08T02:22:56;-5.30;99.90
3954;DHT22;1991;48.682;9.030;2023-02-08T02:28:42;-5.40;99.90
3954;DHT22;1991;48.682;9.030;2023-02-08T02:45:33;-5.60;99.90
3954;DHT22;1991;48.682;9.030;2023-02-08T02:50:56;-5.70;99.90
3954;DHT22;1991;48.682;9.030;2023-02-08T02:53:40;-5.80;99.90
3954;DHT22;1991;48.682;9.030;2023-02-08T02:56:12;-5.80;99.90
3954;DHT22;1991;48.682;9.030;2023-02-08T02:58:40;-5.80;99.90
3954;DHT22;1991;48.682;9.030;2023-02-08T03:01:06;-5.80;99.90
3954;DHT22;1991;48.682;9.030;2023-02-08T03:03:33;-5.90;99.90
3954;DHT22;1991;48.682;9.030;2023-02-08T03:06:40;-5.90;99.90
3954;DHT22;1991;48.682;9.030;2023-02-08T03:12:24;-5.90;99.90
3954;DHT22;1991;48.682;9.030;2023-02-08T03:20:19;-6.00;99.90
3954;DHT22;1991;48.682;9.030;2023-02-08T03:23:00;-6.00;99.90
3954;DHT22;1991;48.682;9.030;2023-02-08T03:25:49;-6.10;99.90
3954;DHT22;1991;48.682;9.030;2023-02-08T03:31:00;-6.10;99.90
3954;DHT22;1991;48.682;9.030;2023-02-08T03:33:40;-6.10;99.90
3954;DHT22;1991;48.682;9.030;2023-02-08T03:39:14;-6.00;99.90
3954;DHT22;1991;48.682;9.030;2023-02-08T03:41:45;-6.00;99.90
3954;DHT22;1991;48.682;9.030;2023-02-08T03:44:26;-6.00;99.90
3954;DHT22;1991;48.682;9.030;2023-02-08T03:47:04;-6.00;99.90
3954;DHT22;1991;48.682;9.030;2023-02-08T03:49:34;-5.90;99.90
3954;DHT22;1991;48.682;9.030;2023-02-08T03:52:03;-5.90;99.90
3954;DHT22;1991;48.682;9.030;2023-02-08T03:54:34;-5.90;99.90
3954;DHT22;1991;48.682;9.030;2023-02-08T03:57:11;-5.80;99.90
3954;DHT22;1991;48.682;9.030;2023-02-08T03:59:41;-5.80;99.90
3954;DHT22;1991;48.682;9.030;2023-02-08T04:02:10;-5.70;99.90
3954;DHT22;1991;48.682;9.030;2023-02-08T04:04:41;-5.70;99.90
3954;DHT22;1991;48.682;9.030;2023-02-08T04:07:07;-5.60;99.90
3954;DHT22;1991;48.682;9.030;2023-02-08T04:09:33;-5.60;99.90
3954;DHT22;1991;48.682;9.030;2023-02-08T04:11:58;-5.60;99.90
3954;DHT22;1991;48.682;9.030;2023-02-08T04:14:24;-5.60;99.90
3954;DHT22;1991;48.682;9.030;2023-02-08T04:16:50;-5.50;99.90
3954;DHT22;1991;48.682;9.030;2023-02-08T04:19:15;-5.50;99.90
3954;DHT22;1991;48.682;9.030;2023-02-08T04:21:41;-5.50;99.90
3954;DHT22;1991;48.682;9.030;2023-02-08T04:24:06;-5.60;99.90
3954;DHT22;1991;48.682;9.030;2023-02-08T04:26:32;-5.60;99.90
3954;DHT22;1991;48.682;9.030;2023-02-08T04:28:57;-5.60;99.90
3954;DHT22;1991;48.682;9.030;2023-02-08T04:31:23;-5.50;99.90
3954;DHT22;1991;48.682;9.030;2023-02-08T04:33:49;-5.50;99.90
3954;DHT22;1991;48.682;9.030;2023-02-08T04:36:14;-5.50;99.90
3954;DHT22;1991;48.682;9.030;2023-02-08T04:38:40;-5.40;99.90
3954;DHT22;1991;48.682;9.030;2023-02-08T04:41:05;-5.40;99.90
3954;DHT22;1991;48.682;9.030;2023-02-08T04:43:31;-5.30;99.90
3954;DHT22;1991;48.682;9.030;2023-02-08T04:45:56;-5.30;99.90
3954;DHT22;1991;48.682;9.030;2023-02-08T04:48:22;-5.30;99.90
3954;DHT22;1991;48.682;9.030;2023-02-08T04:50:48;-5.30;99.90
3954;DHT22;1991;48.682;9.030;2023-02-08T04:53:13;-5.30;99.90
3954;DHT22;1991;48.682;9.030;2023-02-08T04:55:39;-5.30;99.90
3954;DHT22;1991;48.682;9.030;2023-02-08T04:58:04;-5.30;99.90
3954;DHT22;1991;48.682;9.030;2023-02-08T05:00:30;-5.30;99.90
3954;DHT22;1991;48.682;9.030;2023-02-08T05:02:57;-5.30;99.90
3954;DHT22;1991;48.682;9.030;2023-02-08T05:05:24;-5.30;99.90
3954;DHT22;1991;48.682;9.030;2023-02-08T05:07:50;-5.30;99.90
3954;DHT22;1991;48.682;9.030;2023-02-08T05:10:17;-5.30;99.90
3954;DHT22;1991;48.682;9.030;2023-02-08T05:12:42;-5.30;99.90
3954;DHT22;1991;48.682;9.030;2023-02-08T05:15:08;-5.30;99.90
3954;DHT22;1991;48.682;9.030;2023-02-08T05:17:34;-5.40;99.90
3954;DHT22;1991;48.682;9.030;2023-02-08T05:20:02;-5.50;99.90
3954;DHT22;1991;48.682;9.030;2023-02-08T05:22:27;-5.50;99.90
3954;DHT22;1991;48.682;9.030;2023-02-08T05:24:53;-5.50;99.90
3954;DHT22;1991;48.682;9.030;2023-02-08T05:27:19;-5.60;99.90
3954;DHT22;1991;48.682;9.030;2023-02-08T05:29:45;-5.60;99.90
3954;DHT22;1991;48.682;9.030;2023-02-08T05:32:11;-5.60;99.90
3954;DHT22;1991;48.682;9.030;2023-02-08T05:34:37;-5.70;99.90
3954;DHT22;1991;48.682;9.030;2023-02-08T05:37:03;-5.70;99.90
3954;DHT22;1991;48.682;9.030;2023-02-08T05:39:28;-5.70;99.90
3954;DHT22;1991;48.682;9.030;2023-02-08T05:41:54;-5.80;99.90
3954;DHT22;1991;48.682;9.030;2023-02-08T05:44:20;-5.80;99.90
3954;DHT22;1991;48.682;9.030;2023-02-08T05:46:45;-5.90;99.90
3954;DHT22;1991;48.682;9.030;2023-02-08T05:49:11;-5.90;99.90
3954;DHT22;1991;48.682;9.030;2023-02-08T05:51:37;-5.90;99.90
3954;DHT22;1991;48.682;9.030;2023-02-08T05:54:02;-5.90;99.90
3954;DHT22;1991;48.682;9.030;2023-02-08T05:56:28;-6.00;99.90
3954;DHT22;1991;48.682;9.030;2023-02-08T05:58:54;-6.00;99.90
3954;DHT22;1991;48.682;9.030;2023-02-08T06:01:20;-6.00;99.90
3954;DHT22;1991;48.682;9.030;2023-02-08T06:03:46;-6.00;99.90
3954;DHT22;1991;48.682;9.030;2023-02-08T06:06:11;-5.90;99.90
3954;DHT22;1991;48.682;9.030;2023-02-08T06:08:38;-6.00;99.90
3954;DHT22;1991;48.682;9.030;2023-02-08T06:11:04;-6.00;99.90
3954;DHT22;1991;48.682;9.030;2023-02-08T06:13:30;-6.00;99.90
3954;DHT22;1991;48.682;9.030;2023-02-08T06:15:56;-6.00;99.90
3954;DHT22;1991;48.682;9.030;2023-02-08T06:18:22;-5.90;99.90
3954;DHT22;1991;48.682;9.030;2023-02-08T06:20:47;-5.90;99.90
3954;DHT22;1991;48.682;9.030;2023-02-08T06:23:13;-5.90;99.90
3954;DHT22;1991;48.682;9.030;2023-02-08T06:25:39;-5.90;99.90
3954;DHT22;1991;48.682;9.030;2023-02-08T06:28:05;-5.90;99.90
3954;DHT22;1991;48.682;9.030;2023-02-08T06:30:31;-5.90;99.90
3954;DHT22;1991;48.682;9.030;2023-02-08T06:32:56;-5.90;99.90
3954;DHT22;1991;48.682;9.030;2023-02-08T06:35:22;-5.90;99.90
3954;DHT22;1991;48.682;9.030;2023-02-08T06:37:47;-5.90;99.90
3954;DHT22;1991;48.682;9.030;2023-02-08T06:40:13;-5.90;99.90
3954;DHT22;1991;48.682;9.030;2023-02-08T06:42:38;-5.80;99.90
3954;DHT22;1991;48.682;9.030;2023-02-08T06:45:05;-5.70;99.90
3954;DHT22;1991;48.682;9.030;2023-02-08T06:47:33;-5.70;99.90
3954;DHT22;1991;48.682;9.030;2023-02-08T06:49:59;-5.60;99.90
3954;DHT22;1991;48.682;9.030;2023-02-08T06:52:24;-5.70;99.90
3954;DHT22;1991;48.682;9.030;2023-02-08T06:54:50;-5.70;99.90
3954;DHT22;1991;48.682;9.030;2023-02-08T06:57:15;-5.60;99.90
3954;DHT22;1991;48.682;9.030;2023-02-08T06:59:41;-5.50;99.90
3954;DHT22;1991;48.682;9.030;2023-02-08T07:02:15;-5.50;99.90
3954;DHT22;1991;48.682;9.030;2023-02-08T07:04:41;-5.40;99.90
3954;DHT22;1991;48.682;9.030;2023-02-08T07:07:07;-5.30;99.90
3954;DHT22;1991;48.682;9.030;2023-02-08T07:09:34;-5.30;99.90
3954;DHT22;1991;48.682;9.030;2023-02-08T07:12:00;-5.30;99.90
3954;DHT22;1991;48.682;9.030;2023-02-08T07:14:30;-5.30;99.90
3954;DHT22;1991;48.682;9.030;2023-02-08T07:16:55;-5.20;99.90
3954;DHT22;1991;48.682;9.030;2023-02-08T07:19:21;-5.20;99.90
3954;DHT22;1991;48.682;9.030;2023-02-08T07:21:46;-5.00;99.90
3954;DHT22;1991;48.682;9.030;2023-02-08T07:24:12;-4.80;99.90
3954;DHT22;1991;48.682;9.030;2023-02-08T07:26:37;-4.60;99.90
3954;DHT22;1991;48.682;9.030;2023-02-08T07:29:03;-4.40;99.00
3954;DHT22;1991;48.682;9.030;2023-02-08T07:31:29;-4.30;99.00
3954;DHT22;1991;48.682;9.030;2023-02-08T07:33:54;-4.10;97.80
3954;DHT22;1991;48.682;9.030;2023-02-08T07:36:20;-3.90;96.40
3954;DHT22;1991;48.682;9.030;2023-02-08T07:38:46;-3.70;95.40
3954;DHT22;1991;48.682;9.030;2023-02-08T07:41:12;-3.60;94.30
3954;DHT22;1991;48.682;9.030;2023-02-08T07:43:39;-3.30;92.50
3954;DHT22;1991;48.682;9.030;2023-02-08T07:46:13;-3.20;91.70
3954;DHT22;1991;48.682;9.030;2023-02-08T07:48:39;-3.00;90.60
3954;DHT22;1991;48.682;9.030;2023-02-08T07:51:05;-2.70;89.40
3954;DHT22;1991;48.682;9.030;2023-02-08T07:53:31;-2.50;87.40
3954;DHT22;1991;48.682;9.030;2023-02-08T07:55:57;-2.30;85.30
3954;DHT22;1991;48.682;9.030;2023-02-08T07:58:23;-2.10;82.90
3954;DHT22;1991;48.682;9.030;2023-02-08T08:00:49;-1.80;82.50
3954;DHT22;1991;48.682;9.030;2023-02-08T08:03:14;-1.60;79.50
3954;DHT22;1991;48.682;9.030;2023-02-08T08:05:40;-1.30;78.10
3954;DHT22;1991;48.682;9.030;2023-02-08T08:08:07;-1.10;74.80
3954;DHT22;1991;48.682;9.030;2023-02-08T08:10:33;-0.90;73.10
3954;DHT22;1991;48.682;9.030;2023-02-08T08:12:58;-0.80;72.30
3954;DHT22;1991;48.682;9.030;2023-02-08T08:15:24;-0.60;70.50
3954;DHT22;1991;48.682;9.030;2023-02-08T08:17:49;-0.40;68.70
3954;DHT22;1991;48.682;9.030;2023-02-08T08:20:15;-0.20;67.40
3954;DHT22;1991;48.682;9.030;2023-02-08T08:22:41;-0.10;66.60
3954;DHT22;1991;48.682;9.030;2023-02-08T08:25:06;0.10;65.60
3954;DHT22;1991;48.682;9.030;2023-02-08T08:27:32;0.30;64.20
3954;DHT22;1991;48.682;9.030;2023-02-08T08:29:59;0.50;62.80
3954;DHT22;1991;48.682;9.030;2023-02-08T08:32:25;0.70;60.60
3954;DHT22;1991;48.682;9.030;2023-02-08T08:34:51;0.70;60.80
3954;DHT22;1991;48.682;9.030;2023-02-08T08:37:16;1.00;59.70
3954;DHT22;1991;48.682;9.030;2023-02-08T08:39:42;1.30;59.00
3954;DHT22;1991;48.682;9.030;2023-02-08T08:42:07;1.50;57.30
3954;DHT22;1991;48.682;9.030;2023-02-08T08:44:33;1.80;57.10
3954;DHT22;1991;48.682;9.030;2023-02-08T08:46:59;2.20;55.30
3954;DHT22;1991;48.682;9.030;2023-02-08T08:49:26;2.60;53.80
3954;DHT22;1991;48.682;9.030;2023-02-08T08:51:52;3.30;52.40
3954;DHT22;1991;48.682;9.030;2023-02-08T08:54:18;4.30;49.10
3954;DHT22;1991;48.682;9.030;2023-02-08T08:56:44;6.80;47.70
3954;DHT22;1991;48.682;9.030;2023-02-08T08:59:10;10.30;41.10
3954;DHT22;1991;48.682;9.030;2023-02-08T09:01:36;13.20;38.70
3954;DHT22;1991;48.682;9.030;2023-02-08T09:04:03;15.80;32.00
3954;DHT22;1991;48.682;9.030;2023-02-08T09:06:29;18.00;28.50
3954;DHT22;1991;48.682;9.030;2023-02-08T09:08:55;19.30;26.80
3954;DHT22;1991;48.682;9.030;2023-02-08T09:11:20;20.70;25.60
3954;DHT22;1991;48.682;9.030;2023-02-08T09:13:46;21.60;24.80
3954;DHT22;1991;48.682;9.030;2023-02-08T09:16:17;21.90;24.20
3954;DHT22;1991;48.682;9.030;2023-02-08T09:18:44;22.60;23.60
3954;DHT22;1991;48.682;9.030;2023-02-08T09:21:15;23.50;22.90
3954;DHT22;1991;48.682;9.030;2023-02-08T09:23:41;24.80;22.50
3954;DHT22;1991;48.682;9.030;2023-02-08T09:26:11;25.20;22.50
3954;DHT22;1991;48.682;9.030;2023-02-08T09:28:37;26.00;21.90
3954;DHT22;1991;48.682;9.030;2023-02-08T09:31:33;27.10;22.00
3954;DHT22;1991;48.682;9.030;2023-02-08T09:34:02;27.30;21.30
3954;DHT22;1991;48.682;9.030;2023-02-08T09:36:31;28.00;20.90
3954;DHT22;1991;48.682;9.030;2023-02-08T09:39:00;28.10;20.50
3954;DHT22;1991;48.682;9.030;2023-02-08T09:47:00;29.00;20.10
3954;DHT22;1991;48.682;9.030;2023-02-08T09:49:39;28.70;19.90
3954;DHT22;1991;48.682;9.030;2023-02-08T09:52:12;29.40;20.30
3954;DHT22;1991;48.682;9.030;2023-02-08T09:54:47;29.90;20.30
3954;DHT22;1991;48.682;9.030;2023-02-08T09:57:21;30.30;20.20
3954;DHT22;1991;48.682;9.030;2023-02-08T09:59:57;30.90;20.00
3954;DHT22;1991;48.682;9.030;2023-02-08T10:02:27;30.40;19.50
3954;DHT22;1991;48.682;9.030;2023-02-08T10:05:06;31.20;19.90
3954;DHT22;1991;48.682;9.030;2023-02-08T10:07:32;31.30;21.00
3954;DHT22;1991;48.682;9.030;2023-02-08T10:10:06;31.30;19.80
3954;DHT22;1991;48.682;9.030;2023-02-08T10:21:34;34.00;19.40
3954;DHT22;1991;48.682;9.030;2023-02-08T10:24:20;35.00;19.40
3954;DHT22;1991;48.682;9.030;2023-02-08T10:26:52;34.20;19.00
3954;DHT22;1991;48.682;9.030;2023-02-08T10:34:59;35.60;19.10
3954;DHT22;1991;48.682;9.030;2023-02-08T10:37:34;35.40;19.00
3954;DHT22;1991;48.682;9.030;2023-02-08T10:40:29;35.20;18.90
3954;DHT22;1991;48.682;9.030;2023-02-08T10:43:20;35.20;19.00
3954;DHT22;1991;48.682;9.030;2023-02-08T10:48:42;36.30;18.90
3954;DHT22;1991;48.682;9.030;2023-02-08T10:51:13;36.30;18.90
3954;DHT22;1991;48.682;9.030;2023-02-08T10:53:39;35.80;18.60
3954;DHT22;1991;48.682;9.030;2023-02-08T10:56:05;36.10;18.90
3954;DHT22;1991;48.682;9.030;2023-02-08T10:58:32;35.70;19.00
3954;DHT22;1991;48.682;9.030;2023-02-08T11:00:57;35.00;19.00
3954;DHT22;1991;48.682;9.030;2023-02-08T11:03:26;35.20;19.00
3954;DHT22;1991;48.682;9.030;2023-02-08T11:05:52;35.00;19.00
3954;DHT22;1991;48.682;9.030;2023-02-08T11:08:22;36.10;19.10
3954;DHT22;1991;48.682;9.030;2023-02-08T11:13:25;35.20;19.00
3954;DHT22;1991;48.682;9.030;2023-02-08T11:15:56;34.00;19.00
3954;DHT22;1991;48.682;9.030;2023-02-08T11:18:33;34.20;19.00
3954;DHT22;1991;48.682;9.030;2023-02-08T11:21:06;34.80;19.30
3954;DHT22;1991;48.682;9.030;2023-02-08T11:23:40;35.30;19.20
3954;DHT22;1991;48.682;9.030;2023-02-08T11:29:13;35.50;19.40
3954;DHT22;1991;48.682;9.030;2023-02-08T11:31:56;35.20;18.70
3954;DHT22;1991;48.682;9.030;2023-02-08T11:34:30;35.10;18.90
3954;DHT22;1991;48.682;9.030;2023-02-08T11:37:12;34.80;18.90
3954;DHT22;1991;48.682;9.030;2023-02-08T11:39:47;35.50;19.10
3954;DHT22;1991;48.682;9.030;2023-02-08T11:42:30;35.60;18.90
3954;DHT22;1991;48.682;9.030;2023-02-08T11:44:59;35.50;18.80
3954;DHT22;1991;48.682;9.030;2023-02-08T11:47:31;34.50;19.00
3954;DHT22;1991;48.682;9.030;2023-02-08T11:50:06;34.70;19.20
3954;DHT22;1991;48.682;9.030;2023-02-08T11:52:36;35.60;19.20
3954;DHT22;1991;48.682;9.030;2023-02-08T11:58:03;36.40;19.30
3954;DHT22;1991;48.682;9.030;2023-02-08T12:00:35;36.10;18.80
3954;DHT22;1991;48.682;9.030;2023-02-08T12:03:17;35.80;18.80
3954;DHT22;1991;48.682;9.030;2023-02-08T12:06:14;34.60;18.50
3954;DHT22;1991;48.682;9.030;2023-02-08T12:22:28;35.20;19.00
3954;DHT22;1991;48.682;9.030;2023-02-08T12:27:41;35.20;19.10
3954;DHT22;1991;48.682;9.030;2023-02-08T12:30:28;34.90;19.10
3954;DHT22;1991;48.682;9.030;2023-02-08T12:33:05;34.80;19.20
3954;DHT22;1991;48.682;9.030;2023-02-08T12:35:59;35.30;19.10
3954;DHT22;1991;48.682;9.030;2023-02-08T12:47:15;34.90;18.90
3954;DHT22;1991;48.682;9.030;2023-02-08T12:52:42;33.70;19.00
3954;DHT22;1991;48.682;9.030;2023-02-08T12:55:30;34.20;19.40
3954;DHT22;1991;48.682;9.030;2023-02-08T13:00:45;33.70;18.90
3954;DHT22;1991;48.682;9.030;2023-02-08T13:06:04;33.50;19.20
3954;DHT22;1991;48.682;9.030;2023-02-08T13:14:07;33.90;18.90
3954;DHT22;1991;48.682;9.030;2023-02-08T13:16:44;33.50;19.10
3954;DHT22;1991;48.682;9.030;2023-02-08T13:19:25;33.80;19.00
3954;DHT22;1991;48.682;9.030;2023-02-08T13:21:54;33.80;19.10
3954;DHT22;1991;48.682;9.030;2023-02-08T13:24:33;33.60;18.70
3954;DHT22;1991;48.682;9.030;2023-02-08T13:27:00;33.70;18.90
3954;DHT22;1991;48.682;9.030;2023-02-08T13:29:26;33.50;18.60
3954;DHT22;1991;48.682;9.030;2023-02-08T13:32:02;33.60;18.90
3954;DHT22;1991;48.682;9.030;2023-02-08T13:34:37;33.70;18.70
3954;DHT22;1991;48.682;9.030;2023-02-08T13:37:16;33.30;18.70
3954;DHT22;1991;48.682;9.030;2023-02-08T13:39:43;33.30;18.70
3954;DHT22;1991;48.682;9.030;2023-02-08T13:42:27;33.00;18.90
3954;DHT22;1991;48.682;9.030;2023-02-08T13:44:54;32.80;18.80
3954;DHT22;1991;48.682;9.030;2023-02-08T13:47:46;33.70;18.90
3954;DHT22;1991;48.682;9.030;2023-02-08T13:50:36;33.70;18.90
3954;DHT22;1991;48.682;9.030;2023-02-08T13:53:03;34.00;18.80
3954;DHT22;1991;48.682;9.030;2023-02-08T13:57:58;33.60;18.60
3954;DHT22;1991;48.682;9.030;2023-02-08T14:03:19;32.70;18.90
3954;DHT22;1991;48.682;9.030;2023-02-08T14:08:43;30.70;19.10
3954;DHT22;1991;48.682;9.030;2023-02-08T14:11:42;29.20;19.20
3954;DHT22;1991;48.682;9.030;2023-02-08T14:14:25;28.50;19.80
3954;DHT22;1991;48.682;9.030;2023-02-08T14:19:31;27.50;20.30
3954;DHT22;1991;48.682;9.030;2023-02-08T14:22:12;27.20;20.50
3954;DHT22;1991;48.682;9.030;2023-02-08T14:24:46;26.70;20.50
3954;DHT22;1991;48.682;9.030;2023-02-08T14:30:03;26.50;20.80
3954;DHT22;1991;48.682;9.030;2023-02-08T14:32:31;26.00;21.10
3954;DHT22;1991;48.682;9.030;2023-02-08T14:35:49;25.30;20.90
3954;DHT22;1991;48.682;9.030;2023-02-08T14:40:54;25.10;21.30
3954;DHT22;1991;48.682;9.030;2023-02-08T14:45:55;25.50;21.70
3954;DHT22;1991;48.682;9.030;2023-02-08T14:48:32;25.20;21.30
3954;DHT22;1991;48.682;9.030;2023-02-08T14:58:39;22.40;22.70
3954;DHT22;1991;48.682;9.030;2023-02-08T15:01:13;21.50;23.20
3954;DHT22;1991;48.682;9.030;2023-02-08T15:03:40;20.50;23.90
3954;DHT22;1991;48.682;9.030;2023-02-08T15:06:15;20.20;24.30
3954;DHT22;1991;48.682;9.030;2023-02-08T15:08:48;19.50;24.40
3954;DHT22;1991;48.682;9.030;2023-02-08T15:11:27;19.60;24.70
3954;DHT22;1991;48.682;9.030;2023-02-08T15:13:56;19.20;25.10
3954;DHT22;1991;48.682;9.030;2023-02-08T15:16:28;19.20;25.30
3954;DHT22;1991;48.682;9.030;2023-02-08T15:18:56;18.50;25.50
3954;DHT22;1991;48.682;9.030;2023-02-08T15:21:28;17.90;26.00
3954;DHT22;1991;48.682;9.030;2023-02-08T15:23:59;16.20;27.00
3954;DHT22;1991;48.682;9.030;2023-02-08T15:26:25;14.50;28.20
3954;DHT22;1991;48.682;9.030;2023-02-08T15:28:51;13.30;29.70
3954;DHT22;1991;48.682;9.030;2023-02-08T15:31:30;12.90;30.40
3954;DHT22;1991;48.682;9.030;2023-02-08T15:33:57;13.30;30.60
3954;DHT22;1991;48.682;9.030;2023-02-08T15:36:33;14.00;30.10
3954;DHT22;1991;48.682;9.030;2023-02-08T15:39:08;14.40;29.30
3954;DHT22;1991;48.682;9.030;2023-02-08T15:41:34;14.60;29.10
3954;DHT22;1991;48.682;9.030;2023-02-08T15:44:21;14.70;28.80
3954;DHT22;1991;48.682;9.030;2023-02-08T15:46:49;14.30;28.80
3954;DHT22;1991;48.682;9.030;2023-02-08T15:49:25;14.00;29.00
3954;DHT22;1991;48.682;9.030;2023-02-08T15:51:53;13.20;29.60
3954;DHT22;1991;48.682;9.030;2023-02-08T15:54:21;12.00;30.60
3954;DHT22;1991;48.682;9.030;2023-02-08T15:59:26;9.70;33.60
3954;DHT22;1991;48.682;9.030;2023-02-08T16:01:54;8.70;35.40
3954;DHT22;1991;48.682;9.030;2023-02-08T16:04:21;7.90;37.30
3954;DHT22;1991;48.682;9.030;2023-02-08T16:06:52;7.00;38.60
3954;DHT22;1991;48.682;9.030;2023-02-08T16:09:22;6.40;39.90
3954;DHT22;1991;48.682;9.030;2023-02-08T16:11:50;5.70;41.20
3954;DHT22;1991;48.682;9.030;2023-02-08T16:14:20;5.10;42.60
3954;DHT22;1991;48.682;9.030;2023-02-08T16:16:57;4.80;43.50
3954;DHT22;1991;48.682;9.030;2023-02-08T16:19:24;4.30;44.60
3954;DHT22;1991;48.682;9.030;2023-02-08T16:21:50;4.00;46.00
3954;DHT22;1991;48.682;9.030;2023-02-08T16:27:01;3.40;47.40
3954;DHT22;1991;48.682;9.030;2023-02-08T16:29:37;3.10;48.20
3954;DHT22;1991;48.682;9.030;2023-02-08T16:34:47;2.70;49.70
3954;DHT22;1991;48.682;9.030;2023-02-08T16:47:37;1.70;53.70
3954;DHT22;1991;48.682;9.030;2023-02-08T16:50:08;1.50;54.30
3954;DHT22;1991;48.682;9.030;2023-02-08T16:52:34;1.30;55.20
3954;DHT22;1991;48.682;9.030;2023-02-08T16:55:00;1.20;56.20
3954;DHT22;1991;48.682;9.030;2023-02-08T16:57:43;1.10;56.40
3954;DHT22;1991;48.682;9.030;2023-02-08T17:00:14;1.00;56.90
3954;DHT22;1991;48.682;9.030;2023-02-08T17:02:39;0.80;57.70
3954;DHT22;1991;48.682;9.030;2023-02-08T17:05:05;0.80;58.30
3954;DHT22;1991;48.682;9.030;2023-02-08T17:07:31;0.70;58.60
3954;DHT22;1991;48.682;9.030;2023-02-08T17:09:56;0.60;59.10
3954;DHT22;1991;48.682;9.030;2023-02-08T17:12:23;0.50;59.40
3954;DHT22;1991;48.682;9.030;2023-02-08T17:14:49;0.40;59.90
3954;DHT22;1991;48.682;9.030;2023-02-08T17:17:14;0.30;60.60
3954;DHT22;1991;48.682;9.030;2023-02-08T17:19:40;0.20;61.10
3954;DHT22;1991;48.682;9.030;2023-02-08T17:22:05;0.10;62.00
3954;DHT22;1991;48.682;9.030;2023-02-08T17:24:31;0.00;62.40
3954;DHT22;1991;48.682;9.030;2023-02-08T17:26:56;-0.10;62.90
3954;DHT22;1991;48.682;9.030;2023-02-08T17:29:22;-0.20;64.20
3954;DHT22;1991;48.682;9.030;2023-02-08T17:31:47;-0.20;66.80
3954;DHT22;1991;48.682;9.030;2023-02-08T17:34:13;-0.20;65.90
3954;DHT22;1991;48.682;9.030;2023-02-08T17:36:42;-0.20;65.40
3954;DHT22;1991;48.682;9.030;2023-02-08T17:39:07;-0.30;65.50
3954;DHT22;1991;48.682;9.030;2023-02-08T17:41:33;-0.30;65.50
3954;DHT22;1991;48.682;9.030;2023-02-08T17:43:58;-0.40;66.10
3954;DHT22;1991;48.682;9.030;2023-02-08T17:46:27;-0.40;66.20
3954;DHT22;1991;48.682;9.030;2023-02-08T17:48:53;-0.50;66.80
3954;DHT22;1991;48.682;9.030;2023-02-08T17:51:22;-0.60;67.20
3954;DHT22;1991;48.682;9.030;2023-02-08T17:53:49;-0.60;67.70
3954;DHT22;1991;48.682;9.030;2023-02-08T17:56:17;-0.50;68.70
3954;DHT22;1991;48.682;9.030;2023-02-08T17:58:43;-0.50;75.00
3954;DHT22;1991;48.682;9.030;2023-02-08T18:01:14;-0.30;75.50
3954;DHT22;1991;48.682;9.030;2023-02-08T18:03:45;-0.30;73.00
3954;DHT22;1991;48.682;9.030;2023-02-08T18:06:11;-0.30;71.90
3954;DHT22;1991;48.682;9.030;2023-02-08T18:08:37;-0.40;71.30
3954;DHT22;1991;48.682;9.030;2023-02-08T18:11:04;-0.40;71.40
3954;DHT22;1991;48.682;9.030;2023-02-08T18:13:31;-0.50;73.30
3954;DHT22;1991;48.682;9.030;2023-02-08T18:15:56;-0.50;73.20
3954;DHT22;1991;48.682;9.030;2023-02-08T18:18:22;-0.60;72.80
3954;DHT22;1991;48.682;9.030;2023-02-08T18:20:47;-0.70;74.30
3954;DHT22;1991;48.682;9.030;2023-02-08T18:23:13;-0.80;74.40
3954;DHT22;1991;48.682;9.030;2023-02-08T18:25:39;-0.90;75.10
3954;DHT22;1991;48.682;9.030;2023-02-08T18:28:05;-0.90;77.90
3954;DHT22;1991;48.682;9.030;2023-02-08T18:30:31;-0.90;76.30
3954;DHT22;1991;48.682;9.030;2023-02-08T18:32:56;-0.90;82.80
3954;DHT22;1991;48.682;9.030;2023-02-08T18:35:22;-1.00;78.90
3954;DHT22;1991;48.682;9.030;2023-02-08T18:37:47;-1.10;83.00
3954;DHT22;1991;48.682;9.030;2023-02-08T18:40:15;-1.10;82.30
3954;DHT22;1991;48.682;9.030;2023-02-08T18:42:41;-1.00;83.30
3954;DHT22;1991;48.682;9.030;2023-02-08T18:45:07;-1.10;82.80
3954;DHT22;1991;48.682;9.030;2023-02-08T18:47:34;-1.10;81.20
3954;DHT22;1991;48.682;9.030;2023-02-08T18:50:00;-1.20;81.50
3954;DHT22;1991;48.682;9.030;2023-02-08T18:52:26;-1.30;82.10
3954;DHT22;1991;48.682;9.030;2023-02-08T18:54:51;-1.40;83.00